createdAt,value
2022-10-06T00:08:49.992Z,101033.81
2022-10-06T00:18:53.695Z,101044.13
2022-10-06T00:28:58.734Z,101044.13
2022-10-06T00:39:02.570Z,101063.50
2022-10-06T00:49:16.408Z,101075.28
2022-10-06T00:59:20.850Z,101098.66
2022-10-06T01:09:26.825Z,101103.38
2022-10-06T01:19:47.223Z,101111.78
2022-10-06T01:29:55.356Z,101116.22
2022-10-06T01:39:59.024Z,101134.50
2022-10-06T01:50:05.444Z,101142.41
2022-10-06T02:00:12.825Z,101143.69
2022-10-06T02:10:18.060Z,101168.06
2022-10-06T02:20:22.514Z,101184.84
2022-10-06T02:30:27.456Z,101228.19
2022-10-06T02:40:31.066Z,101235.72
2022-10-06T02:50:37.163Z,101263.88
2022-10-06T03:00:40.717Z,101278.94
2022-10-06T03:10:46.315Z,101292.13
2022-10-06T03:20:50.455Z,101304.09
2022-10-06T03:31:03.552Z,101315.13
2022-10-06T03:41:10.220Z,101317.22
2022-10-06T03:51:18.209Z,101331.31
2022-10-06T04:01:26.388Z,101350.06
2022-10-06T04:11:34.442Z,101359.03
2022-10-06T04:21:39.844Z,101384.16
2022-10-06T04:31:45.433Z,101396.72
2022-10-06T04:41:49.056Z,101412.38
2022-10-06T04:51:54.104Z,101434.25
2022-10-06T05:01:58.148Z,101432.50
2022-10-06T05:12:03.190Z,101451.75
2022-10-06T05:22:06.848Z,101474.06
2022-10-06T05:32:11.838Z,101490.59
2022-10-06T05:42:15.510Z,101502.84
2022-10-06T05:52:20.646Z,101535.06
2022-10-06T06:02:24.508Z,101551.84
2022-10-06T06:12:29.554Z,101558.34
2022-10-06T06:22:34.143Z,101588.91
2022-10-06T06:32:39.611Z,101611.59
2022-10-06T06:42:43.343Z,101636.19
2022-10-06T06:52:48.317Z,101652.88
2022-10-06T07:02:56.059Z,101669.88
2022-10-06T07:13:01.220Z,101678.41
2022-10-06T07:23:23.242Z,101684.94
2022-10-06T07:33:29.327Z,101693.91
2022-10-06T07:43:33.082Z,101707.81
2022-10-06T07:53:39.151Z,101704.50
2022-10-06T08:03:45.563Z,101708.47
2022-10-06T08:14:01.480Z,101723.44
2022-10-06T08:24:07.658Z,101738.25
2022-10-06T08:34:12.791Z,101754.00
2022-10-06T08:44:26.613Z,101772.63
2022-10-06T08:54:39.859Z,101777.19
2022-10-06T09:04:43.764Z,101782.72
2022-10-06T09:14:54.667Z,101783.19
2022-10-06T09:25:03.068Z,101789.84
2022-10-06T09:35:19.847Z,101795.72
2022-10-06T09:45:28.993Z,101793.19
2022-10-06T09:55:52.056Z,101788.31
2022-10-06T10:05:56.776Z,101794.91
2022-10-06T10:16:04.028Z,101795.28
2022-10-06T10:26:25.790Z,101788.97
2022-10-06T10:36:37.917Z,101783.19
2022-10-06T10:46:53.027Z,101785.06
2022-10-06T10:57:03.505Z,101792.44
2022-10-06T11:07:23.361Z,101779.88
2022-10-06T11:17:44.276Z,101778.59
2022-10-06T11:28:02.927Z,101770.97
2022-10-06T11:38:19.950Z,101757.25
2022-10-06T11:48:27.530Z,101745.91
2022-10-06T11:59:13.471Z,101746.41
2022-10-06T12:09:53.151Z,101729.78
2022-10-06T12:20:11.955Z,101716.72
2022-10-06T12:30:23.111Z,101710.28
2022-10-06T12:41:04.393Z,101703.06
2022-10-06T12:51:25.472Z,101687.41
2022-10-06T13:01:31.420Z,101702.28
2022-10-06T13:11:35.368Z,101693.25
2022-10-06T13:21:40.823Z,101684.47
2022-10-06T13:31:52.666Z,101674.19
2022-10-06T13:42:03.372Z,101676.97
2022-10-06T13:52:18.445Z,101676.97
2022-10-06T14:02:33.461Z,101679.38
2022-10-06T14:12:43.729Z,101672.31
2022-10-06T14:22:48.684Z,101655.25
2022-10-06T14:32:52.259Z,101660.16
2022-10-06T14:42:57.189Z,101656.84
2022-10-06T14:53:01.202Z,101642.56
2022-10-06T15:03:07.029Z,101636.94
2022-10-06T15:13:12.430Z,101642.13
2022-10-06T15:23:17.468Z,101633.13
2022-10-06T15:33:21.146Z,101627.59
2022-10-06T15:43:46.057Z,101629.84
2022-10-06T15:53:52.673Z,101638.09
2022-10-06T16:03:59.108Z,101630.19
2022-10-06T16:14:02.850Z,101642.13
2022-10-06T16:24:08.099Z,101640.66
2022-10-06T16:34:12.339Z,101638.63
2022-10-06T16:44:18.143Z,101659.78
2022-10-06T16:54:21.741Z,101660.00
2022-10-06T17:04:27.200Z,101667.03
2022-10-06T17:14:34.499Z,101685.22
2022-10-06T17:24:39.649Z,101690.56
2022-10-06T17:34:43.366Z,101697.00
2022-10-06T17:44:48.363Z,101708.88
2022-10-06T17:54:52.344Z,101715.03
2022-10-06T18:04:57.574Z,101714.72
2022-10-06T18:15:04.376Z,101718.94
2022-10-06T18:25:16.576Z,101712.34
2022-10-06T18:46:03.418Z,101706.94
2022-10-06T18:56:10.871Z,101711.38
2022-10-06T19:06:16.592Z,101710.22
2022-10-06T19:16:28.429Z,101722.13
2022-10-06T19:26:34.045Z,101709.84
2022-10-06T19:36:39.596Z,101729.41
2022-10-06T19:46:44.618Z,101737.44
2022-10-06T19:56:49.141Z,101748.94
2022-10-06T20:06:54.412Z,101748.25
2022-10-06T20:16:58.431Z,101756.63
2022-10-06T20:27:03.488Z,101764.16
2022-10-06T20:37:07.380Z,101763.47
2022-10-06T20:47:13.519Z,101755.03
2022-10-06T20:57:17.210Z,101749.19
2022-10-06T21:07:22.197Z,101745.41
2022-10-06T21:17:25.916Z,101750.84
2022-10-06T21:27:30.942Z,101736.53
2022-10-06T21:37:35.517Z,101745.22
2022-10-06T21:47:40.748Z,101733.63
2022-10-06T21:57:44.711Z,101734.22
2022-10-06T22:07:49.961Z,101723.78
2022-10-06T22:17:53.559Z,101725.56
2022-10-06T22:27:58.569Z,101720.09
2022-10-06T22:38:08.357Z,101715.03
2022-10-06T22:48:22.841Z,101703.22
2022-10-06T22:58:27.147Z,101696.16
2022-10-06T23:08:35.275Z,101692.56
2022-10-06T23:18:41.157Z,101687.84
2022-10-06T23:28:47.170Z,101682.03
2022-10-06T23:38:51.045Z,101669.19
2022-10-06T23:48:55.975Z,101666.38
2022-10-06T23:58:59.784Z,101657.09
